sensor_id;sensor_type;location;lat;lon;timestamp;temperature;humidity
35457;DHT22;21575;51.538;-0.084;2022-08-21T00:01:06;17.60;99.90
35457;DHT22;21575;51.538;-0.084;2022-08-21T00:03:35;17.60;99.90
35457;DHT22;21575;51.538;-0.084;2022-08-21T00:06:00;17.60;99.90
35457;DHT22;21575;51.538;-0.084;2022-08-21T00:08:26;17.60;99.90
35457;DHT22;21575;51.538;-0.084;2022-08-21T00:10:52;17.60;99.90
35457;DHT22;21575;51.538;-0.084;2022-08-21T00:13:18;17.60;99.90
35457;DHT22;21575;51.538;-0.084;2022-08-21T00:15:46;17.50;99.90
35457;DHT22;21575;51.538;-0.084;2022-08-21T00:18:12;17.50;99.90
35457;DHT22;21575;51.538;-0.084;2022-08-21T00:20:39;17.50;99.90
35457;DHT22;21575;51.538;-0.084;2022-08-21T00:23:05;17.50;99.90
35457;DHT22;21575;51.538;-0.084;2022-08-21T00:25:31;17.40;99.90
35457;DHT22;21575;51.538;-0.084;2022-08-21T00:27:57;17.40;99.90
35457;DHT22;21575;51.538;-0.084;2022-08-21T00:30:25;17.40;99.90
35457;DHT22;21575;51.538;-0.084;2022-08-21T00:32:52;17.40;99.90
35457;DHT22;21575;51.538;-0.084;2022-08-21T00:35:21;17.30;99.90
35457;DHT22;21575;51.538;-0.084;2022-08-21T00:37:47;17.30;99.90
35457;DHT22;21575;51.538;-0.084;2022-08-21T00:40:15;17.30;99.90
35457;DHT22;21575;51.538;-0.084;2022-08-21T00:42:41;17.30;99.90
35457;DHT22;21575;51.538;-0.084;2022-08-21T00:45:08;17.20;99.90
35457;DHT22;21575;51.538;-0.084;2022-08-21T00:47:33;17.20;99.90
35457;DHT22;21575;51.538;-0.084;2022-08-21T00:49:59;17.20;99.90
35457;DHT22;21575;51.538;-0.084;2022-08-21T00:52:28;17.20;99.90
35457;DHT22;21575;51.538;-0.084;2022-08-21T00:54:57;17.10;99.90
35457;DHT22;21575;51.538;-0.084;2022-08-21T00:57:28;17.10;99.90
35457;DHT22;21575;51.538;-0.084;2022-08-21T00:59:56;17.10;99.90
35457;DHT22;21575;51.538;-0.084;2022-08-21T01:02:23;17.10;99.90
35457;DHT22;21575;51.538;-0.084;2022-08-21T01:04:49;17.00;99.90
35457;DHT22;21575;51.538;-0.084;2022-08-21T01:07:15;17.00;99.90
35457;DHT22;21575;51.538;-0.084;2022-08-21T01:09:41;17.00;99.90
35457;DHT22;21575;51.538;-0.084;2022-08-21T01:12:08;17.00;99.90
35457;DHT22;21575;51.538;-0.084;2022-08-21T01:14:34;17.00;99.90
35457;DHT22;21575;51.538;-0.084;2022-08-21T01:17:01;17.00;99.90
35457;DHT22;21575;51.538;-0.084;2022-08-21T01:19:28;17.00;99.90
35457;DHT22;21575;51.538;-0.084;2022-08-21T01:21:54;17.00;99.90
35457;DHT22;21575;51.538;-0.084;2022-08-21T01:24:20;17.00;99.90
35457;DHT22;21575;51.538;-0.084;2022-08-21T01:26:48;16.90;99.90
35457;DHT22;21575;51.538;-0.084;2022-08-21T01:29:26;16.90;99.90
35457;DHT22;21575;51.538;-0.084;2022-08-21T01:31:54;16.90;99.90
35457;DHT22;21575;51.538;-0.084;2022-08-21T01:34:20;16.90;99.90
35457;DHT22;21575;51.538;-0.084;2022-08-21T01:36:46;16.80;99.90
35457;DHT22;21575;51.538;-0.084;2022-08-21T01:39:12;16.80;99.90
35457;DHT22;21575;51.538;-0.084;2022-08-21T01:41:38;16.70;99.90
35457;DHT22;21575;51.538;-0.084;2022-08-21T01:44:04;16.70;99.90
35457;DHT22;21575;51.538;-0.084;2022-08-21T01:46:30;16.70;99.90
35457;DHT22;21575;51.538;-0.084;2022-08-21T01:48:55;16.70;99.90
35457;DHT22;21575;51.538;-0.084;2022-08-21T01:51:21;16.70;99.90
35457;DHT22;21575;51.538;-0.084;2022-08-21T01:53:47;16.70;99.90
35457;DHT22;21575;51.538;-0.084;2022-08-21T01:56:14;16.70;99.90
35457;DHT22;21575;51.538;-0.084;2022-08-21T01:58:41;16.70;99.90
35457;DHT22;21575;51.538;-0.084;2022-08-21T02:01:07;16.80;99.90
35457;DHT22;21575;51.538;-0.084;2022-08-21T02:03:33;16.80;99.90
35457;DHT22;21575;51.538;-0.084;2022-08-21T02:05:59;16.80;99.90
35457;DHT22;21575;51.538;-0.084;2022-08-21T02:08:24;16.80;99.90
35457;DHT22;21575;51.538;-0.084;2022-08-21T02:10:51;16.80;99.90
35457;DHT22;21575;51.538;-0.084;2022-08-21T02:13:17;16.80;99.90
35457;DHT22;21575;51.538;-0.084;2022-08-21T02:15:43;16.80;99.90
35457;DHT22;21575;51.538;-0.084;2022-08-21T02:18:08;16.70;99.90
35457;DHT22;21575;51.538;-0.084;2022-08-21T02:20:40;16.70;99.90
35457;DHT22;21575;51.538;-0.084;2022-08-21T02:23:08;16.70;99.90
35457;DHT22;21575;51.538;-0.084;2022-08-21T02:25:34;16.70;99.90
35457;DHT22;21575;51.538;-0.084;2022-08-21T02:28:04;16.60;99.90
35457;DHT22;21575;51.538;-0.084;2022-08-21T02:30:32;16.60;99.90
35457;DHT22;21575;51.538;-0.084;2022-08-21T02:32:58;16.60;99.90
35457;DHT22;21575;51.538;-0.084;2022-08-21T02:35:25;16.50;99.90
35457;DHT22;21575;51.538;-0.084;2022-08-21T02:37:56;16.50;99.90
35457;DHT22;21575;51.538;-0.084;2022-08-21T02:40:25;16.50;99.90
35457;DHT22;21575;51.538;-0.084;2022-08-21T02:42:51;16.50;99.90
35457;DHT22;21575;51.538;-0.084;2022-08-21T02:45:18;16.40;99.90
35457;DHT22;21575;51.538;-0.084;2022-08-21T02:47:55;16.40;99.90
35457;DHT22;21575;51.538;-0.084;2022-08-21T02:50:24;16.40;99.90
35457;DHT22;21575;51.538;-0.084;2022-08-21T02:52:50;16.40;99.90
35457;DHT22;21575;51.538;-0.084;2022-08-21T02:55:18;16.40;99.90
35457;DHT22;21575;51.538;-0.084;2022-08-21T02:57:44;16.40;99.90
35457;DHT22;21575;51.538;-0.084;2022-08-21T03:00:10;16.40;99.90
35457;DHT22;21575;51.538;-0.084;2022-08-21T03:02:37;16.40;99.90
35457;DHT22;21575;51.538;-0.084;2022-08-21T03:05:04;16.40;99.90
35457;DHT22;21575;51.538;-0.084;2022-08-21T03:07:30;16.30;99.90
35457;DHT22;21575;51.538;-0.084;2022-08-21T03:09:55;16.30;99.90
35457;DHT22;21575;51.538;-0.084;2022-08-21T03:12:21;16.30;99.90
35457;DHT22;21575;51.538;-0.084;2022-08-21T03:14:47;16.30;99.90
35457;DHT22;21575;51.538;-0.084;2022-08-21T03:17:12;16.30;99.90
35457;DHT22;21575;51.538;-0.084;2022-08-21T03:19:38;16.30;99.90
35457;DHT22;21575;51.538;-0.084;2022-08-21T03:22:04;16.30;99.90
35457;DHT22;21575;51.538;-0.084;2022-08-21T03:24:30;16.20;99.90
35457;DHT22;21575;51.538;-0.084;2022-08-21T03:26:56;16.20;99.90
35457;DHT22;21575;51.538;-0.084;2022-08-21T03:29:25;16.20;99.90
35457;DHT22;21575;51.538;-0.084;2022-08-21T03:31:51;16.20;99.90
35457;DHT22;21575;51.538;-0.084;2022-08-21T03:34:19;16.20;99.90
35457;DHT22;21575;51.538;-0.084;2022-08-21T03:36:45;16.20;99.90
35457;DHT22;21575;51.538;-0.084;2022-08-21T03:39:11;16.10;99.90
35457;DHT22;21575;51.538;-0.084;2022-08-21T03:41:37;16.10;99.90
35457;DHT22;21575;51.538;-0.084;2022-08-21T03:44:03;16.10;99.90
35457;DHT22;21575;51.538;-0.084;2022-08-21T03:46:28;16.10;99.90
35457;DHT22;21575;51.538;-0.084;2022-08-21T03:48:54;16.10;99.90
35457;DHT22;21575;51.538;-0.084;2022-08-21T03:51:20;16.10;99.90
35457;DHT22;21575;51.538;-0.084;2022-08-21T03:53:46;16.10;99.90
35457;DHT22;21575;51.538;-0.084;2022-08-21T03:56:12;16.10;99.90
35457;DHT22;21575;51.538;-0.084;2022-08-21T03:58:37;16.10;99.90
35457;DHT22;21575;51.538;-0.084;2022-08-21T04:01:04;16.10;99.90
35457;DHT22;21575;51.538;-0.084;2022-08-21T04:03:32;16.10;99.90
35457;DHT22;21575;51.538;-0.084;2022-08-21T04:05:59;16.10;99.90
35457;DHT22;21575;51.538;-0.084;2022-08-21T04:08:24;16.10;99.90
35457;DHT22;21575;51.538;-0.084;2022-08-21T04:10:53;16.00;99.90
35457;DHT22;21575;51.538;-0.084;2022-08-21T04:13:20;16.10;99.90
35457;DHT22;21575;51.538;-0.084;2022-08-21T04:15:46;16.00;99.90
35457;DHT22;21575;51.538;-0.084;2022-08-21T04:18:11;16.10;99.90
35457;DHT22;21575;51.538;-0.084;2022-08-21T04:20:39;16.10;99.90
35457;DHT22;21575;51.538;-0.084;2022-08-21T04:23:06;16.10;99.90
35457;DHT22;21575;51.538;-0.084;2022-08-21T04:25:32;16.10;99.90
35457;DHT22;21575;51.538;-0.084;2022-08-21T04:27:57;16.10;99.90
35457;DHT22;21575;51.538;-0.084;2022-08-21T04:30:24;16.10;99.90
35457;DHT22;21575;51.538;-0.084;2022-08-21T04:32:50;16.20;99.90
35457;DHT22;21575;51.538;-0.084;2022-08-21T04:35:19;16.10;99.90
35457;DHT22;21575;51.538;-0.084;2022-08-21T04:37:45;16.20;99.90
35457;DHT22;21575;51.538;-0.084;2022-08-21T04:40:13;16.20;99.90
35457;DHT22;21575;51.538;-0.084;2022-08-21T04:43:17;16.20;99.90
35457;DHT22;21575;51.538;-0.084;2022-08-21T04:45:41;16.20;99.90
35457;DHT22;21575;51.538;-0.084;2022-08-21T04:48:09;16.20;99.90
35457;DHT22;21575;51.538;-0.084;2022-08-21T04:53:30;16.10;99.90
35457;DHT22;21575;51.538;-0.084;2022-08-21T04:56:00;16.10;99.90
35457;DHT22;21575;51.538;-0.084;2022-08-21T04:58:27;16.10;99.90
35457;DHT22;21575;51.538;-0.084;2022-08-21T05:00:56;16.10;99.90
35457;DHT22;21575;51.538;-0.084;2022-08-21T05:03:22;16.10;99.90
35457;DHT22;21575;51.538;-0.084;2022-08-21T05:05:48;16.10;99.90
35457;DHT22;21575;51.538;-0.084;2022-08-21T05:08:17;16.10;99.90
35457;DHT22;21575;51.538;-0.084;2022-08-21T05:10:44;16.00;99.90
35457;DHT22;21575;51.538;-0.084;2022-08-21T05:13:12;16.00;99.90
35457;DHT22;21575;51.538;-0.084;2022-08-21T05:15:39;16.00;99.90
35457;DHT22;21575;51.538;-0.084;2022-08-21T05:18:05;16.00;99.90
35457;DHT22;21575;51.538;-0.084;2022-08-21T05:20:32;16.00;99.90
35457;DHT22;21575;51.538;-0.084;2022-08-21T05:23:00;16.00;99.90
35457;DHT22;21575;51.538;-0.084;2022-08-21T05:25:26;16.00;99.90
35457;DHT22;21575;51.538;-0.084;2022-08-21T05:27:51;16.00;99.90
35457;DHT22;21575;51.538;-0.084;2022-08-21T05:30:19;16.00;99.90
35457;DHT22;21575;51.538;-0.084;2022-08-21T05:32:46;16.00;99.90
35457;DHT22;21575;51.538;-0.084;2022-08-21T05:35:11;16.00;99.90
35457;DHT22;21575;51.538;-0.084;2022-08-21T05:37:37;16.10;99.90
35457;DHT22;21575;51.538;-0.084;2022-08-21T05:40:03;16.10;99.90
35457;DHT22;21575;51.538;-0.084;2022-08-21T05:42:30;16.10;99.90
35457;DHT22;21575;51.538;-0.084;2022-08-21T05:44:55;16.10;99.90
35457;DHT22;21575;51.538;-0.084;2022-08-21T05:47:21;16.10;99.90
35457;DHT22;21575;51.538;-0.084;2022-08-21T05:49:47;16.20;99.90
35457;DHT22;21575;51.538;-0.084;2022-08-21T05:52:19;16.20;99.90
35457;DHT22;21575;51.538;-0.084;2022-08-21T05:54:45;16.20;99.90
35457;DHT22;21575;51.538;-0.084;2022-08-21T05:57:11;16.20;99.90
35457;DHT22;21575;51.538;-0.084;2022-08-21T05:59:36;16.30;99.90
35457;DHT22;21575;51.538;-0.084;2022-08-21T06:02:03;16.30;99.90
35457;DHT22;21575;51.538;-0.084;2022-08-21T06:04:29;16.30;99.90
35457;DHT22;21575;51.538;-0.084;2022-08-21T06:06:55;16.30;99.90
35457;DHT22;21575;51.538;-0.084;2022-08-21T06:09:20;16.40;99.90
35457;DHT22;21575;51.538;-0.084;2022-08-21T06:11:46;16.40;99.90
35457;DHT22;21575;51.538;-0.084;2022-08-21T06:14:14;16.50;99.90
35457;DHT22;21575;51.538;-0.084;2022-08-21T06:16:40;16.60;99.90
35457;DHT22;21575;51.538;-0.084;2022-08-21T06:19:05;16.70;99.90
35457;DHT22;21575;51.538;-0.084;2022-08-21T06:21:31;16.80;99.90
35457;DHT22;21575;51.538;-0.084;2022-08-21T06:23:57;16.90;99.90
35457;DHT22;21575;51.538;-0.084;2022-08-21T06:26:23;17.00;99.90
35457;DHT22;21575;51.538;-0.084;2022-08-21T06:28:49;17.10;99.90
35457;DHT22;21575;51.538;-0.084;2022-08-21T06:31:18;17.20;99.90
35457;DHT22;21575;51.538;-0.084;2022-08-21T06:33:44;17.30;99.90
35457;DHT22;21575;51.538;-0.084;2022-08-21T06:36:10;17.30;99.90
35457;DHT22;21575;51.538;-0.084;2022-08-21T06:38:37;17.40;99.90
35457;DHT22;21575;51.538;-0.084;2022-08-21T06:41:03;17.40;99.90
35457;DHT22;21575;51.538;-0.084;2022-08-21T06:43:29;17.60;99.90
35457;DHT22;21575;51.538;-0.084;2022-08-21T06:45:54;17.60;99.90
35457;DHT22;21575;51.538;-0.084;2022-08-21T06:48:20;17.70;99.90
35457;DHT22;21575;51.538;-0.084;2022-08-21T06:50:47;17.80;99.90
35457;DHT22;21575;51.538;-0.084;2022-08-21T06:53:15;17.90;99.90
35457;DHT22;21575;51.538;-0.084;2022-08-21T06:55:41;17.90;99.90
35457;DHT22;21575;51.538;-0.084;2022-08-21T06:58:08;18.00;99.90
35457;DHT22;21575;51.538;-0.084;2022-08-21T07:00:34;18.00;99.90
35457;DHT22;21575;51.538;-0.084;2022-08-21T07:03:01;17.90;99.90
35457;DHT22;21575;51.538;-0.084;2022-08-21T07:05:28;17.90;99.90
35457;DHT22;21575;51.538;-0.084;2022-08-21T07:07:54;18.00;99.90
35457;DHT22;21575;51.538;-0.084;2022-08-21T07:10:20;18.00;99.90
35457;DHT22;21575;51.538;-0.084;2022-08-21T07:12:45;18.00;99.90
35457;DHT22;21575;51.538;-0.084;2022-08-21T07:15:11;18.10;99.90
35457;DHT22;21575;51.538;-0.084;2022-08-21T07:17:37;18.10;99.90
35457;DHT22;21575;51.538;-0.084;2022-08-21T07:20:04;18.20;99.90
35457;DHT22;21575;51.538;-0.084;2022-08-21T07:22:30;18.30;99.90
35457;DHT22;21575;51.538;-0.084;2022-08-21T07:24:56;18.30;99.90
35457;DHT22;21575;51.538;-0.084;2022-08-21T07:27:22;18.40;99.90
35457;DHT22;21575;51.538;-0.084;2022-08-21T07:29:47;18.40;99.90
35457;DHT22;21575;51.538;-0.084;2022-08-21T07:32:14;18.50;99.90
35457;DHT22;21575;51.538;-0.084;2022-08-21T07:34:40;18.50;99.90
35457;DHT22;21575;51.538;-0.084;2022-08-21T07:37:06;18.60;99.90
35457;DHT22;21575;51.538;-0.084;2022-08-21T07:39:32;18.70;99.90
35457;DHT22;21575;51.538;-0.084;2022-08-21T07:41:57;18.70;99.90
35457;DHT22;21575;51.538;-0.084;2022-08-21T07:44:23;18.80;99.90
35457;DHT22;21575;51.538;-0.084;2022-08-21T07:46:49;18.80;99.90
35457;DHT22;21575;51.538;-0.084;2022-08-21T07:49:14;18.80;99.90
35457;DHT22;21575;51.538;-0.084;2022-08-21T07:51:40;18.90;99.90
35457;DHT22;21575;51.538;-0.084;2022-08-21T07:54:06;19.00;99.90
35457;DHT22;21575;51.538;-0.084;2022-08-21T07:56:31;19.10;99.90
35457;DHT22;21575;51.538;-0.084;2022-08-21T07:58:57;19.10;99.90
35457;DHT22;21575;51.538;-0.084;2022-08-21T08:01:24;19.10;99.90
35457;DHT22;21575;51.538;-0.084;2022-08-21T08:03:49;19.10;99.90
35457;DHT22;21575;51.538;-0.084;2022-08-21T08:06:15;19.10;99.90
35457;DHT22;21575;51.538;-0.084;2022-08-21T08:08:44;19.20;99.90
35457;DHT22;21575;51.538;-0.084;2022-08-21T08:11:12;19.20;99.90
35457;DHT22;21575;51.538;-0.084;2022-08-21T08:13:48;19.20;99.90
35457;DHT22;21575;51.538;-0.084;2022-08-21T08:16:15;19.20;99.90
35457;DHT22;21575;51.538;-0.084;2022-08-21T08:18:41;19.20;99.90
35457;DHT22;21575;51.538;-0.084;2022-08-21T08:21:08;19.30;99.90
35457;DHT22;21575;51.538;-0.084;2022-08-21T08:23:34;19.40;99.90
35457;DHT22;21575;51.538;-0.084;2022-08-21T08:26:00;19.50;99.90
35457;DHT22;21575;51.538;-0.084;2022-08-21T08:28:28;19.60;99.90
35457;DHT22;21575;51.538;-0.084;2022-08-21T08:30:54;19.80;99.90
35457;DHT22;21575;51.538;-0.084;2022-08-21T08:33:21;19.90;99.90
35457;DHT22;21575;51.538;-0.084;2022-08-21T08:35:48;20.00;99.90
35457;DHT22;21575;51.538;-0.084;2022-08-21T08:38:15;20.10;99.90
35457;DHT22;21575;51.538;-0.084;2022-08-21T08:40:50;20.20;99.90
35457;DHT22;21575;51.538;-0.084;2022-08-21T08:43:18;20.30;99.90
35457;DHT22;21575;51.538;-0.084;2022-08-21T08:45:47;20.40;99.90
35457;DHT22;21575;51.538;-0.084;2022-08-21T08:48:30;20.40;99.90
35457;DHT22;21575;51.538;-0.084;2022-08-21T08:50:57;20.50;99.90
35457;DHT22;21575;51.538;-0.084;2022-08-21T08:53:32;20.40;99.90
35457;DHT22;21575;51.538;-0.084;2022-08-21T08:56:00;20.20;99.90
35457;DHT22;21575;51.538;-0.084;2022-08-21T08:58:31;20.20;99.90
35457;DHT22;21575;51.538;-0.084;2022-08-21T09:00:58;20.10;99.90
35457;DHT22;21575;51.538;-0.084;2022-08-21T09:03:26;20.20;99.90
35457;DHT22;21575;51.538;-0.084;2022-08-21T09:06:24;20.20;99.90
35457;DHT22;21575;51.538;-0.084;2022-08-21T09:14:51;20.40;99.90
35457;DHT22;21575;51.538;-0.084;2022-08-21T09:17:22;20.50;99.90
35457;DHT22;21575;51.538;-0.084;2022-08-21T09:25:24;20.60;99.90
35457;DHT22;21575;51.538;-0.084;2022-08-21T09:27:50;20.70;99.90
35457;DHT22;21575;51.538;-0.084;2022-08-21T09:30:17;20.90;99.90
35457;DHT22;21575;51.538;-0.084;2022-08-21T09:32:43;21.10;99.90
35457;DHT22;21575;51.538;-0.084;2022-08-21T09:35:13;21.20;99.90
35457;DHT22;21575;51.538;-0.084;2022-08-21T09:38:08;21.30;99.90
35457;DHT22;21575;51.538;-0.084;2022-08-21T09:40:40;21.50;99.90
35457;DHT22;21575;51.538;-0.084;2022-08-21T09:43:18;21.60;99.90
35457;DHT22;21575;51.538;-0.084;2022-08-21T09:45:47;21.80;99.90
35457;DHT22;21575;51.538;-0.084;2022-08-21T09:48:18;21.80;99.90
35457;DHT22;21575;51.538;-0.084;2022-08-21T09:50:45;21.90;99.90
35457;DHT22;21575;51.538;-0.084;2022-08-21T09:53:20;21.90;99.90
35457;DHT22;21575;51.538;-0.084;2022-08-21T09:55:56;22.00;99.90
35457;DHT22;21575;51.538;-0.084;2022-08-21T09:58:43;22.00;99.90
35457;DHT22;21575;51.538;-0.084;2022-08-21T10:01:18;22.00;99.90
35457;DHT22;21575;51.538;-0.084;2022-08-21T10:03:45;22.00;99.90
35457;DHT22;21575;51.538;-0.084;2022-08-21T10:06:26;21.90;99.90
35457;DHT22;21575;51.538;-0.084;2022-08-21T10:09:06;21.80;99.90
35457;DHT22;21575;51.538;-0.084;2022-08-21T10:11:32;21.70;99.90
35457;DHT22;21575;51.538;-0.084;2022-08-21T10:19:37;22.00;99.90
35457;DHT22;21575;51.538;-0.084;2022-08-21T10:30:50;22.70;99.90
35457;DHT22;21575;51.538;-0.084;2022-08-21T10:42:31;22.80;99.90
35457;DHT22;21575;51.538;-0.084;2022-08-21T10:44:34;22.70;99.90
35457;DHT22;21575;51.538;-0.084;2022-08-21T10:47:52;22.70;99.90
35457;DHT22;21575;51.538;-0.084;2022-08-21T10:50:31;22.90;99.90
35457;DHT22;21575;51.538;-0.084;2022-08-21T10:56:08;23.10;99.90
35457;DHT22;21575;51.538;-0.084;2022-08-21T10:58:46;23.20;99.90
35457;DHT22;21575;51.538;-0.084;2022-08-21T11:01:20;23.30;99.90
35457;DHT22;21575;51.538;-0.084;2022-08-21T11:04:06;23.30;99.90
35457;DHT22;21575;51.538;-0.084;2022-08-21T11:06:33;23.40;99.90
35457;DHT22;21575;51.538;-0.084;2022-08-21T11:09:13;23.40;99.90
35457;DHT22;21575;51.538;-0.084;2022-08-21T11:11:55;23.20;99.90
35457;DHT22;21575;51.538;-0.084;2022-08-21T11:16:57;23.20;99.90
35457;DHT22;21575;51.538;-0.084;2022-08-21T11:19:33;23.30;99.90
35457;DHT22;21575;51.538;-0.084;2022-08-21T11:25:03;23.30;99.90
35457;DHT22;21575;51.538;-0.084;2022-08-21T11:30:03;23.20;99.90
35457;DHT22;21575;51.538;-0.084;2022-08-21T11:35:22;23.10;99.90
35457;DHT22;21575;51.538;-0.084;2022-08-21T11:47:13;22.80;99.90
35457;DHT22;21575;51.538;-0.084;2022-08-21T11:49:31;22.60;99.90
35457;DHT22;21575;51.538;-0.084;2022-08-21T11:52:19;22.50;99.90
35457;DHT22;21575;51.538;-0.084;2022-08-21T11:57:25;22.30;99.90
35457;DHT22;21575;51.538;-0.084;2022-08-21T12:02:42;22.40;99.90
35457;DHT22;21575;51.538;-0.084;2022-08-21T12:05:09;22.50;99.90
35457;DHT22;21575;51.538;-0.084;2022-08-21T12:07:42;22.70;99.90
35457;DHT22;21575;51.538;-0.084;2022-08-21T12:10:14;22.80;99.90
35457;DHT22;21575;51.538;-0.084;2022-08-21T12:12:42;22.80;99.90
35457;DHT22;21575;51.538;-0.084;2022-08-21T12:20:42;23.20;99.90
35457;DHT22;21575;51.538;-0.084;2022-08-21T12:25:38;23.40;99.90
35457;DHT22;21575;51.538;-0.084;2022-08-21T12:28:23;23.50;99.90
35457;DHT22;21575;51.538;-0.084;2022-08-21T12:30:50;23.50;99.90
35457;DHT22;21575;51.538;-0.084;2022-08-21T12:35:48;23.70;99.90
35457;DHT22;21575;51.538;-0.084;2022-08-21T12:38:20;23.60;99.90
35457;DHT22;21575;51.538;-0.084;2022-08-21T12:40:58;23.70;99.90
35457;DHT22;21575;51.538;-0.084;2022-08-21T12:43:35;23.80;99.90
35457;DHT22;21575;51.538;-0.084;2022-08-21T12:46:02;23.90;99.90
35457;DHT22;21575;51.538;-0.084;2022-08-21T12:48:49;23.80;99.90
35457;DHT22;21575;51.538;-0.084;2022-08-21T12:51:28;23.90;99.90
35457;DHT22;21575;51.538;-0.084;2022-08-21T12:53:58;23.90;99.90
35457;DHT22;21575;51.538;-0.084;2022-08-21T12:56:28;23.90;99.90
35457;DHT22;21575;51.538;-0.084;2022-08-21T12:59:05;24.10;99.90
35457;DHT22;21575;51.538;-0.084;2022-08-21T13:01:43;24.10;99.90
35457;DHT22;21575;51.538;-0.084;2022-08-21T13:04:15;24.00;99.90
35457;DHT22;21575;51.538;-0.084;2022-08-21T13:06:45;24.00;99.90
35457;DHT22;21575;51.538;-0.084;2022-08-21T13:09:14;24.00;99.90
35457;DHT22;21575;51.538;-0.084;2022-08-21T13:11:45;24.10;99.90
35457;DHT22;21575;51.538;-0.084;2022-08-21T13:14:24;24.20;99.90
35457;DHT22;21575;51.538;-0.084;2022-08-21T13:16:57;24.20;99.90
35457;DHT22;21575;51.538;-0.084;2022-08-21T13:19:23;24.20;99.90
35457;DHT22;21575;51.538;-0.084;2022-08-21T13:21:50;24.10;99.90
35457;DHT22;21575;51.538;-0.084;2022-08-21T13:24:24;24.20;99.90
35457;DHT22;21575;51.538;-0.084;2022-08-21T13:26:52;24.20;99.90
35457;DHT22;21575;51.538;-0.084;2022-08-21T13:29:21;24.20;99.90
35457;DHT22;21575;51.538;-0.084;2022-08-21T13:31:56;24.30;99.90
35457;DHT22;21575;51.538;-0.084;2022-08-21T13:34:31;24.40;99.90
35457;DHT22;21575;51.538;-0.084;2022-08-21T13:37:00;24.50;99.90
35457;DHT22;21575;51.538;-0.084;2022-08-21T13:39:26;24.60;99.90
35457;DHT22;21575;51.538;-0.084;2022-08-21T13:41:56;24.60;99.90
35457;DHT22;21575;51.538;-0.084;2022-08-21T13:44:44;24.70;99.90
35457;DHT22;21575;51.538;-0.084;2022-08-21T13:47:12;24.70;99.90
35457;DHT22;21575;51.538;-0.084;2022-08-21T13:49:50;24.60;99.90
35457;DHT22;21575;51.538;-0.084;2022-08-21T13:52:22;24.70;99.90
35457;DHT22;21575;51.538;-0.084;2022-08-21T13:54:59;24.70;99.90
35457;DHT22;21575;51.538;-0.084;2022-08-21T13:57:30;24.70;99.90
35457;DHT22;21575;51.538;-0.084;2022-08-21T14:00:17;24.70;99.90
35457;DHT22;21575;51.538;-0.084;2022-08-21T14:02:46;24.70;99.90
35457;DHT22;21575;51.538;-0.084;2022-08-21T14:05:21;24.70;99.90
35457;DHT22;21575;51.538;-0.084;2022-08-21T14:07:49;24.50;99.90
35457;DHT22;21575;51.538;-0.084;2022-08-21T14:10:19;24.30;99.90
35457;DHT22;21575;51.538;-0.084;2022-08-21T14:13:04;24.30;99.90
35457;DHT22;21575;51.538;-0.084;2022-08-21T14:15:32;24.20;99.90
35457;DHT22;21575;51.538;-0.084;2022-08-21T14:18:13;24.00;99.90
35457;DHT22;21575;51.538;-0.084;2022-08-21T14:20:40;24.00;99.90
35457;DHT22;21575;51.538;-0.084;2022-08-21T14:23:06;24.00;99.90
35457;DHT22;21575;51.538;-0.084;2022-08-21T14:25:41;23.90;99.90
35457;DHT22;21575;51.538;-0.084;2022-08-21T14:30:41;23.70;99.90
35457;DHT22;21575;51.538;-0.084;2022-08-21T14:33:28;23.60;99.90
35457;DHT22;21575;51.538;-0.084;2022-08-21T14:35:54;23.50;99.90
35457;DHT22;21575;51.538;-0.084;2022-08-21T14:38:25;23.50;99.90
35457;DHT22;21575;51.538;-0.084;2022-08-21T14:41:04;23.60;99.90
35457;DHT22;21575;51.538;-0.084;2022-08-21T14:43:33;23.60;99.90
35457;DHT22;21575;51.538;-0.084;2022-08-21T14:46:00;23.70;99.90
35457;DHT22;21575;51.538;-0.084;2022-08-21T14:48:26;23.70;99.90
35457;DHT22;21575;51.538;-0.084;2022-08-21T14:50:52;23.70;99.90
35457;DHT22;21575;51.538;-0.084;2022-08-21T14:53:17;23.70;99.90
35457;DHT22;21575;51.538;-0.084;2022-08-21T14:55:43;23.80;99.90
35457;DHT22;21575;51.538;-0.084;2022-08-21T14:58:27;23.90;99.90
35457;DHT22;21575;51.538;-0.084;2022-08-21T15:00:54;24.00;99.90
35457;DHT22;21575;51.538;-0.084;2022-08-21T15:03:21;24.00;99.90
35457;DHT22;21575;51.538;-0.084;2022-08-21T15:05:47;24.00;99.90
35457;DHT22;21575;51.538;-0.084;2022-08-21T15:08:13;23.90;99.90
35457;DHT22;21575;51.538;-0.084;2022-08-21T15:10:39;23.90;99.90
35457;DHT22;21575;51.538;-0.084;2022-08-21T15:13:05;23.90;99.90
35457;DHT22;21575;51.538;-0.084;2022-08-21T15:15:40;23.90;99.90
35457;DHT22;21575;51.538;-0.084;2022-08-21T15:18:06;23.90;99.90
35457;DHT22;21575;51.538;-0.084;2022-08-21T15:20:32;23.80;99.90
35457;DHT22;21575;51.538;-0.084;2022-08-21T15:22:58;23.70;99.90
35457;DHT22;21575;51.538;-0.084;2022-08-21T15:25:24;23.70;99.90
35457;DHT22;21575;51.538;-0.084;2022-08-21T15:27:49;23.70;99.90
35457;DHT22;21575;51.538;-0.084;2022-08-21T15:30:15;23.70;99.90
35457;DHT22;21575;51.538;-0.084;2022-08-21T15:32:41;23.70;99.90
35457;DHT22;21575;51.538;-0.084;2022-08-21T15:35:08;23.70;99.90
35457;DHT22;21575;51.538;-0.084;2022-08-21T15:37:34;23.80;99.90
35457;DHT22;21575;51.538;-0.084;2022-08-21T15:40:00;23.90;99.90
35457;DHT22;21575;51.538;-0.084;2022-08-21T15:42:26;23.90;99.90
35457;DHT22;21575;51.538;-0.084;2022-08-21T15:44:53;24.00;99.90
35457;DHT22;21575;51.538;-0.084;2022-08-21T15:47:24;24.00;99.90
35457;DHT22;21575;51.538;-0.084;2022-08-21T15:49:52;24.00;99.90
35457;DHT22;21575;51.538;-0.084;2022-08-21T15:52:20;23.90;99.90
35457;DHT22;21575;51.538;-0.084;2022-08-21T15:54:46;23.90;99.90
35457;DHT22;21575;51.538;-0.084;2022-08-21T15:57:14;23.90;99.90
35457;DHT22;21575;51.538;-0.084;2022-08-21T15:59:44;23.90;99.90
35457;DHT22;21575;51.538;-0.084;2022-08-21T16:02:17;24.00;99.90
35457;DHT22;21575;51.538;-0.084;2022-08-21T16:04:44;24.00;99.90
35457;DHT22;21575;51.538;-0.084;2022-08-21T16:07:10;24.00;99.90
35457;DHT22;21575;51.538;-0.084;2022-08-21T16:09:36;24.00;99.90
35457;DHT22;21575;51.538;-0.084;2022-08-21T16:12:04;24.00;99.90
35457;DHT22;21575;51.538;-0.084;2022-08-21T16:14:30;24.10;99.90
35457;DHT22;21575;51.538;-0.084;2022-08-21T16:16:56;24.20;99.90
35457;DHT22;21575;51.538;-0.084;2022-08-21T16:19:23;24.20;99.90
35457;DHT22;21575;51.538;-0.084;2022-08-21T16:21:49;24.30;99.90
35457;DHT22;21575;51.538;-0.084;2022-08-21T16:24:14;24.30;99.90
35457;DHT22;21575;51.538;-0.084;2022-08-21T16:26:40;24.40;99.90
35457;DHT22;21575;51.538;-0.084;2022-08-21T16:29:06;24.40;99.90
35457;DHT22;21575;51.538;-0.084;2022-08-21T16:31:33;24.40;99.90
35457;DHT22;21575;51.538;-0.084;2022-08-21T16:33:59;24.50;99.90
35457;DHT22;21575;51.538;-0.084;2022-08-21T16:36:26;24.50;99.90
35457;DHT22;21575;51.538;-0.084;2022-08-21T16:38:53;24.60;99.90
35457;DHT22;21575;51.538;-0.084;2022-08-21T16:41:20;24.60;99.90
35457;DHT22;21575;51.538;-0.084;2022-08-21T16:43:49;24.60;99.90